PFB weather

Lauro Kurtz Airport
Passo Fundo, Rio Grande do Sul, Brazil

Public forecast

Using degrees Celsius for public forecast. Weather courtesy of forecast.io.

Current aviation weather report (METAR) for Lauro Kurtz Airport

Retrieved 2020/02/29 12:00 UTC (59 minutes ago):

SBPF 291200Z 06014KT CAVOK 19/14 Q1021

Closest aviation forecast (TAF) to Lauro Kurtz Airport

Forecast is more than 6 hours old.

Closest forecast is Santa Maria Airport, 113.5 nm (210.2 km) SW. Retrieved 2020/02/29 06:57 UTC (6 hours ago):

TAF SBSM 290300Z 2906/2918 08005KT CAVOK TN15/2908Z TX30/2917Z BECMG 2914/2916 12005KT 9999 SCT035 RMK PFD